createdAt,value
2019-04-06T00:02:16.941Z,90065.65
2019-04-06T00:04:46.728Z,90051.49
2019-04-06T00:07:16.664Z,90086.79
2019-04-06T00:09:46.505Z,90073.20
2019-04-06T00:12:16.355Z,90090.83
2019-04-06T00:14:46.140Z,90094.66
2019-04-06T00:17:17.660Z,90067.11
2019-04-06T00:19:48.021Z,89986.71
2019-04-06T00:22:18.142Z,89983.20
2019-04-06T00:24:48.239Z,89987.55
2019-04-06T00:27:17.975Z,89963.44
2019-04-06T00:29:48.168Z,89926.24
2019-04-06T00:32:22.748Z,89907.77
2019-04-06T00:34:52.500Z,89901.92
2019-04-06T00:37:22.282Z,89923.09
2019-04-06T00:39:52.103Z,89887.14
2019-04-06T00:42:21.880Z,89748.35
2019-04-06T00:44:51.686Z,89760.04
2019-04-06T00:47:21.450Z,89732.19
2019-04-06T00:49:51.221Z,89645.84
2019-04-06T00:52:21.040Z,89591.41
2019-04-06T00:54:50.826Z,89565.56
2019-04-06T00:57:20.611Z,89511.19
2019-04-06T00:59:50.495Z,89512.20
2019-04-06T01:02:20.549Z,89512.25
2019-04-06T01:04:51.234Z,89572.70
2019-04-06T01:07:23.086Z,89592.98
2019-04-06T01:09:52.755Z,89567.76
2019-04-06T01:12:22.633Z,89550.55
2019-04-06T01:14:54.759Z,89558.52
2019-04-06T01:17:24.613Z,89550.45
2019-04-06T01:19:54.218Z,89619.87
2019-04-06T01:22:24.270Z,89611.80
2019-04-06T01:24:54.080Z,89519.22
2019-04-06T01:27:24.796Z,89562.23
2019-04-06T01:29:54.483Z,89497.69
2019-04-06T01:32:24.194Z,89434.62
2019-04-06T01:34:54.036Z,89378.65
2019-04-06T01:37:23.915Z,89385.67
2019-04-06T01:39:54.062Z,89280.41
2019-04-06T01:42:23.820Z,89248.00
2019-04-06T01:44:53.642Z,89290.64
2019-04-06T01:47:23.569Z,89330.11
2019-04-06T01:49:53.397Z,89284.22
2019-04-06T01:52:23.291Z,89138.42
2019-04-06T01:54:53.941Z,89137.16
2019-04-06T01:57:23.506Z,89156.95
2019-04-06T01:59:53.476Z,89229.95
2019-04-06T02:02:33.904Z,89331.28
2019-04-06T02:05:03.753Z,89437.63
2019-04-06T02:07:33.561Z,89544.73
2019-04-06T02:10:04.139Z,89606.91
2019-04-06T02:12:33.924Z,89650.28
2019-04-06T02:15:04.476Z,89680.78
2019-04-06T02:17:34.282Z,89725.83
2019-04-06T02:20:04.668Z,89764.11
2019-04-06T02:22:34.510Z,89780.91
2019-04-06T02:25:05.543Z,89782.11
2019-04-06T02:27:35.241Z,89730.62
2019-04-06T02:30:12.630Z,89724.71
2019-04-06T02:32:47.890Z,89671.25
2019-04-06T02:35:19.212Z,89701.48
2019-04-06T02:37:53.427Z,89688.80
2019-04-06T02:40:42.990Z,89680.50
2019-04-06T02:43:17.406Z,89679.48
2019-04-06T02:45:48.162Z,89717.69
2019-04-06T02:48:17.957Z,89751.62
2019-04-06T02:50:48.691Z,89761.04
2019-04-06T02:53:19.328Z,89694.53
2019-04-06T02:55:49.384Z,89650.10
2019-04-06T02:58:19.500Z,89614.67
2019-04-06T03:00:49.306Z,89584.03
2019-04-06T03:03:19.042Z,89588.59
2019-04-06T03:05:48.960Z,89624.05
2019-04-06T03:08:18.776Z,89614.81
2019-04-06T03:10:48.571Z,89625.36
2019-04-06T03:13:18.352Z,89603.08
2019-04-06T03:15:48.806Z,89611.17
2019-04-06T03:18:18.420Z,89576.66
2019-04-06T03:20:49.108Z,89549.52
2019-04-06T03:23:18.958Z,89522.90
2019-04-06T03:25:48.807Z,89537.74
2019-04-06T03:28:18.763Z,89601.91
2019-04-06T03:30:48.579Z,89584.91
2019-04-06T03:33:19.313Z,89561.21
2019-04-06T03:35:50.610Z,89549.53
2019-04-06T03:38:21.699Z,89604.36
2019-04-06T03:40:51.506Z,89584.03
2019-04-06T03:43:21.318Z,89551.78
2019-04-06T03:45:51.615Z,89458.76
2019-04-06T03:48:21.445Z,89436.87
2019-04-06T03:50:54.407Z,89406.11
2019-04-06T03:53:24.195Z,89412.17
2019-04-06T03:55:54.092Z,89379.53
2019-04-06T03:58:25.795Z,89407.06
2019-04-06T04:00:55.696Z,89414.30
2019-04-06T04:03:25.378Z,89400.69
2019-04-06T04:05:55.196Z,89383.05
2019-04-06T04:08:25.012Z,89346.28
2019-04-06T04:10:56.175Z,89334.47
2019-04-06T04:13:26.066Z,89334.39
2019-04-06T04:15:58.406Z,89307.33
2019-04-06T04:18:28.207Z,89257.70
2019-04-06T04:20:58.004Z,89180.66
2019-04-06T04:23:27.878Z,89181.23
2019-04-06T04:25:57.945Z,89176.66
2019-04-06T04:28:27.949Z,89115.88
2019-04-06T04:30:57.774Z,89086.69
2019-04-06T04:33:27.553Z,89020.06
2019-04-06T04:35:57.247Z,88935.14
2019-04-06T04:38:26.933Z,88972.44
2019-04-06T04:40:56.680Z,88954.84
2019-04-06T04:43:27.180Z,88955.21
2019-04-06T04:45:56.799Z,89056.92
2019-04-06T04:48:26.574Z,89064.77
2019-04-06T04:50:56.396Z,89032.07
2019-04-06T04:53:26.331Z,89029.57
2019-04-06T04:55:56.769Z,89125.66
2019-04-06T04:58:26.620Z,89244.88
2019-04-06T05:00:56.721Z,89293.56
2019-04-06T05:03:26.568Z,89240.30
2019-04-06T05:05:56.291Z,89231.80
2019-04-06T05:08:26.083Z,89309.14
2019-04-06T05:10:55.918Z,89338.12
2019-04-06T05:13:25.665Z,89326.54
2019-04-06T05:16:14.956Z,89255.16
2019-04-06T05:18:44.787Z,89209.91
2019-04-06T05:21:17.163Z,89237.54
2019-04-06T05:23:47.008Z,89340.59
2019-04-06T05:26:16.770Z,89311.86
2019-04-06T05:28:46.607Z,89364.30
2019-04-06T05:31:16.332Z,89323.41
2019-04-06T05:33:46.339Z,89194.94
2019-04-06T05:36:16.306Z,89101.24
2019-04-06T05:38:45.997Z,89039.59
2019-04-06T05:41:15.736Z,89019.48
2019-04-06T05:43:46.958Z,88921.72
2019-04-06T05:46:17.173Z,88929.37
2019-04-06T05:48:49.889Z,88880.20
2019-04-06T05:51:19.713Z,88820.17
2019-04-06T05:53:49.418Z,88773.78
2019-04-06T05:56:19.133Z,88747.78
2019-04-06T05:58:48.980Z,88792.33
2019-04-06T06:01:19.063Z,88817.27
2019-04-06T06:03:48.905Z,88932.97
2019-04-06T06:06:18.975Z,88957.80
2019-04-06T06:08:48.761Z,89006.25
2019-04-06T06:11:18.564Z,89150.97
2019-04-06T06:13:48.345Z,89357.55
2019-04-06T06:16:18.174Z,89416.52
2019-04-06T06:18:48.033Z,89446.20
2019-04-06T06:21:17.890Z,89433.14
2019-04-06T06:23:47.765Z,89487.19
2019-04-06T06:26:17.979Z,89500.23
2019-04-06T06:28:48.120Z,89470.77
2019-04-06T06:31:17.957Z,89501.34
2019-04-06T06:33:47.926Z,89612.55
2019-04-06T06:36:18.306Z,89583.38
2019-04-06T06:38:49.255Z,89620.61
2019-04-06T06:41:19.184Z,89719.63
2019-04-06T06:43:49.134Z,89744.09
2019-04-06T06:46:18.891Z,89901.87
2019-04-06T06:48:49.788Z,89995.03
2019-04-06T06:51:19.594Z,90174.81
2019-04-06T06:53:50.418Z,89990.28
2019-04-06T06:56:20.493Z,89892.50
2019-04-06T06:58:50.368Z,90118.88
2019-04-06T07:01:22.832Z,90220.43
2019-04-06T07:03:53.454Z,90370.20
2019-04-06T07:06:23.265Z,90745.95
2019-04-06T07:08:53.043Z,90919.86
2019-04-06T07:11:22.839Z,91001.00
2019-04-06T07:13:52.574Z,91240.95
2019-04-06T07:16:24.154Z,91264.88
2019-04-06T07:18:53.978Z,91282.55
2019-04-06T07:21:24.640Z,91554.30
2019-04-06T07:23:54.552Z,91658.74
2019-04-06T07:26:24.632Z,91707.47
2019-04-06T07:28:54.419Z,91747.91
2019-04-06T07:31:25.841Z,91851.59
2019-04-06T07:33:56.633Z,92008.22
2019-04-06T07:36:26.533Z,92090.69
2019-04-06T07:38:56.482Z,92137.68
2019-04-06T07:41:26.314Z,92108.84
2019-04-06T07:43:56.263Z,92046.72
2019-04-06T07:46:25.958Z,92051.52
2019-04-06T07:48:55.760Z,92071.38
2019-04-06T07:51:25.507Z,92157.92
2019-04-06T07:53:55.791Z,92294.13
2019-04-06T07:56:25.568Z,92435.92
2019-04-06T07:58:57.256Z,92465.48
2019-04-06T08:01:28.604Z,92436.69
2019-04-06T08:03:58.758Z,92431.69
2019-04-06T08:06:28.572Z,92381.56
2019-04-06T08:08:58.323Z,92301.59
2019-04-06T08:11:28.123Z,92248.55
2019-04-06T08:13:57.954Z,92234.58
2019-04-06T08:16:28.197Z,92172.45
2019-04-06T08:18:58.207Z,92143.26
2019-04-06T08:21:30.312Z,92175.30
2019-04-06T08:24:01.091Z,92160.34
2019-04-06T08:26:30.848Z,92140.66
2019-04-06T08:29:02.438Z,92074.64
2019-04-06T08:31:32.313Z,92086.17
2019-04-06T08:34:02.506Z,92059.55
2019-04-06T08:36:32.385Z,92068.77
2019-04-06T08:39:02.122Z,92089.78
2019-04-06T08:41:31.964Z,92082.98
2019-04-06T08:44:01.804Z,92083.59
2019-04-06T08:46:32.547Z,92056.66
2019-04-06T08:49:02.469Z,92034.27
2019-04-06T08:51:33.128Z,92003.42
2019-04-06T08:54:03.180Z,91989.88
2019-04-06T08:56:33.213Z,92025.12
2019-04-06T08:59:11.479Z,92044.33
2019-04-06T09:01:34.517Z,92025.77
2019-04-06T09:04:04.411Z,91909.01
2019-04-06T09:06:34.546Z,91834.31
2019-04-06T09:09:07.613Z,91816.03
2019-04-06T09:11:37.304Z,91831.57
2019-04-06T09:14:07.220Z,91879.48
2019-04-06T09:16:37.117Z,91937.55
2019-04-06T09:19:07.080Z,91998.11
2019-04-06T09:21:37.072Z,92038.48
2019-04-06T09:24:07.151Z,92077.16
2019-04-06T09:26:37.919Z,92063.06
2019-04-06T09:29:07.778Z,92064.98
2019-04-06T09:31:37.869Z,92049.44
2019-04-06T09:34:07.920Z,92109.11
2019-04-06T09:36:37.697Z,92082.67
2019-04-06T09:39:07.527Z,92209.58
2019-04-06T09:41:37.723Z,92168.44
2019-04-06T09:44:09.282Z,92179.27
2019-04-06T09:46:57.337Z,92181.75
2019-04-06T09:49:34.700Z,92208.30
2019-04-06T09:52:15.207Z,92214.22
2019-04-06T09:54:56.279Z,92265.29
2019-04-06T09:57:27.625Z,92317.06
2019-04-06T10:00:05.338Z,92407.35
2019-04-06T10:02:46.555Z,92463.08
2019-04-06T10:05:23.514Z,92434.89
2019-04-06T10:07:54.835Z,92377.31
2019-04-06T10:10:36.307Z,92254.28
2019-04-06T10:13:07.636Z,92228.08
2019-04-06T10:15:55.226Z,92288.60
2019-04-06T10:18:35.995Z,92393.44
2019-04-06T10:21:16.361Z,92428.05
2019-04-06T10:24:04.419Z,92347.17
2019-04-06T10:26:52.676Z,92461.42
2019-04-06T10:29:26.569Z,92621.28
2019-04-06T10:32:16.347Z,92631.19
2019-04-06T10:34:56.672Z,92606.47
2019-04-06T10:37:44.621Z,92376.64
2019-04-06T10:40:31.733Z,92403.66
2019-04-06T10:43:12.016Z,92388.95
2019-04-06T10:45:46.453Z,92544.78
2019-04-06T10:48:23.641Z,92618.83
2019-04-06T10:51:10.987Z,92532.81
2019-04-06T10:53:45.269Z,92643.03
2019-04-06T10:56:23.457Z,92640.32
2019-04-06T10:58:58.101Z,92675.77
2019-04-06T11:01:38.496Z,92588.47
2019-04-06T11:04:11.004Z,92619.28
2019-04-06T11:06:43.601Z,92559.98
2019-04-06T11:09:15.853Z,92518.70
2019-04-06T11:11:53.141Z,92504.45
2019-04-06T11:14:34.564Z,92575.94
2019-04-06T11:17:15.120Z,92663.96
2019-04-06T11:19:55.169Z,92658.38
2019-04-06T11:22:28.333Z,92673.72
2019-04-06T11:25:00.409Z,92674.95
2019-04-06T11:27:34.612Z,92663.34
2019-04-06T11:30:13.480Z,92670.57
2019-04-06T11:32:47.946Z,92668.43
2019-04-06T11:35:19.351Z,92676.42
2019-04-06T11:37:51.019Z,92648.72
2019-04-06T11:40:25.021Z,92651.14
2019-04-06T11:43:08.004Z,92645.77
2019-04-06T11:45:48.403Z,92648.92
2019-04-06T11:48:38.778Z,92658.02
2019-04-06T11:51:19.059Z,92643.14
2019-04-06T11:53:54.438Z,92616.92
2019-04-06T11:56:35.110Z,92587.08
2019-04-06T11:59:07.590Z,92533.54
2019-04-06T12:01:56.904Z,92522.17
2019-04-06T12:04:44.885Z,92482.34
2019-04-06T12:07:19.331Z,92466.98
2019-04-06T12:09:54.883Z,92425.47
2019-04-06T12:12:27.194Z,92383.41
2019-04-06T12:15:07.677Z,92393.00
2019-04-06T12:17:51.823Z,92377.14
2019-04-06T12:20:30.459Z,92360.20
2019-04-06T12:23:07.636Z,92436.45
2019-04-06T12:25:53.967Z,92455.80
2019-04-06T12:28:25.492Z,92371.84
2019-04-06T12:31:05.909Z,92399.96
2019-04-06T12:33:40.341Z,92349.95
2019-04-06T12:36:17.972Z,92372.50
2019-04-06T12:38:54.034Z,92458.02
2019-04-06T12:41:35.569Z,92462.40
2019-04-06T12:44:23.358Z,92490.95
2019-04-06T12:47:12.408Z,92485.11
2019-04-06T12:49:49.715Z,92480.00
2019-04-06T12:52:23.828Z,92465.72
2019-04-06T12:55:07.545Z,92522.84
2019-04-06T12:57:51.127Z,92526.36
2019-04-06T13:00:49.309Z,92511.10
2019-04-06T13:03:24.185Z,92498.33
2019-04-06T13:06:04.620Z,92487.41
2019-04-06T13:08:49.203Z,92495.92
2019-04-06T13:11:28.242Z,92510.09
2019-04-06T13:14:06.628Z,92555.59
2019-04-06T13:16:54.624Z,92567.80
2019-04-06T13:19:42.251Z,92566.63
2019-04-06T13:22:16.910Z,92571.48
2019-04-06T13:25:00.453Z,92567.36
2019-04-06T13:27:49.231Z,92546.30
2019-04-06T13:30:32.612Z,92552.17
2019-04-06T13:33:13.049Z,92538.67
2019-04-06T13:35:45.216Z,92544.09
2019-04-06T13:38:22.465Z,92539.95
2019-04-06T13:41:05.784Z,92547.33
2019-04-06T13:43:53.319Z,92552.93
2019-04-06T13:46:30.391Z,92543.73
2019-04-06T13:49:01.766Z,92539.83
2019-04-06T13:51:35.169Z,92547.45
2019-04-06T13:54:06.960Z,92533.09
2019-04-06T13:56:47.394Z,92544.84
2019-04-06T13:59:23.618Z,92552.83
2019-04-06T14:02:00.810Z,92549.12
2019-04-06T14:04:32.404Z,92547.57
2019-04-06T14:07:07.383Z,92556.16
2019-04-06T14:09:41.491Z,92564.05
2019-04-06T14:12:15.601Z,92568.34
2019-04-06T14:15:04.890Z,92583.66
2019-04-06T14:17:52.480Z,92591.13
2019-04-06T14:20:42.490Z,92587.98
2019-04-06T14:23:30.005Z,92582.06
2019-04-06T14:26:11.209Z,92594.52
2019-04-06T14:28:45.285Z,92587.94
2019-04-06T14:31:33.130Z,92586.92
2019-04-06T14:34:05.253Z,92577.10
2019-04-06T14:36:53.995Z,92577.23
2019-04-06T14:39:37.716Z,92578.02
2019-04-06T14:42:11.997Z,92561.37
2019-04-06T14:44:46.248Z,92567.55
2019-04-06T14:47:34.076Z,92575.05
2019-04-06T14:50:15.834Z,92564.66
2019-04-06T14:52:47.418Z,92551.39
2019-04-06T14:55:34.159Z,92536.22
2019-04-06T14:58:11.935Z,92535.20
2019-04-06T15:00:46.335Z,92514.16
2019-04-06T15:03:21.596Z,92520.72
2019-04-06T15:05:52.934Z,92528.31
2019-04-06T15:08:24.362Z,92536.22
2019-04-06T15:10:58.530Z,92534.72
2019-04-06T15:13:45.831Z,92532.22
2019-04-06T15:16:33.553Z,92540.92
2019-04-06T15:19:10.847Z,92515.61
2019-04-06T15:21:59.532Z,92510.47
2019-04-06T15:24:36.691Z,92490.94
2019-04-06T15:27:17.400Z,92470.17
2019-04-06T15:30:02.253Z,92465.86
2019-04-06T15:32:33.596Z,92461.41
2019-04-06T15:35:05.256Z,92468.09
2019-04-06T15:37:45.400Z,92465.50
2019-04-06T15:40:23.089Z,92440.83
2019-04-06T15:43:10.938Z,92443.08
2019-04-06T15:45:42.815Z,92418.27
2019-04-06T15:48:14.142Z,92437.30
2019-04-06T15:50:58.191Z,92417.98
2019-04-06T15:53:41.690Z,92428.14
2019-04-06T15:56:31.066Z,92393.91
2019-04-06T15:59:08.885Z,92346.20
2019-04-06T16:02:02.237Z,92322.28
2019-04-06T16:04:48.109Z,92296.36
2019-04-06T16:07:32.549Z,92002.68
2019-04-06T16:10:15.868Z,92176.94
2019-04-06T16:13:03.761Z,92145.13
2019-04-06T16:15:41.438Z,92172.10
2019-04-06T16:18:13.225Z,92187.16
2019-04-06T16:20:49.171Z,92175.45
2019-04-06T16:23:23.652Z,92150.42
2019-04-06T16:26:04.184Z,92158.47
2019-04-06T16:28:51.664Z,92164.84
2019-04-06T16:31:29.672Z,92157.08
2019-04-06T16:34:06.777Z,92157.63
2019-04-06T16:36:41.508Z,92414.48
2019-04-06T16:39:29.782Z,92374.59
2019-04-06T16:42:17.691Z,92292.08
2019-04-06T16:44:49.215Z,92225.17
2019-04-06T16:47:26.336Z,92197.22
2019-04-06T16:49:57.942Z,92167.35
2019-04-06T16:52:34.095Z,92171.33
2019-04-06T16:55:18.071Z,92152.06
2019-04-06T16:57:50.560Z,92146.11
2019-04-06T17:00:38.117Z,92116.02
2019-04-06T17:03:13.060Z,92105.80
2019-04-06T17:05:47.109Z,92115.17
2019-04-06T17:08:22.169Z,92116.52
2019-04-06T17:11:09.653Z,92108.64
2019-04-06T17:13:41.069Z,92077.21
2019-04-06T17:16:12.771Z,92045.09
2019-04-06T17:18:47.454Z,92031.17
2019-04-06T17:21:25.130Z,92022.75
2019-04-06T17:24:05.817Z,92010.12
2019-04-06T17:26:42.317Z,91990.58
2019-04-06T17:29:16.591Z,91978.84
2019-04-06T17:31:54.369Z,91974.13
2019-04-06T17:34:31.889Z,91959.72
2019-04-06T17:37:12.372Z,91952.62
2019-04-06T17:39:59.973Z,91944.53
2019-04-06T17:42:39.086Z,91934.17
2019-04-06T17:45:12.712Z,91933.70
2019-04-06T17:47:46.802Z,91919.28
2019-04-06T17:50:23.767Z,91903.22
2019-04-06T17:52:55.468Z,91886.75
2019-04-06T17:55:31.273Z,91857.98
2019-04-06T17:58:06.039Z,91862.73
2019-04-06T18:00:47.281Z,91866.21
2019-04-06T18:03:19.712Z,91830.47
2019-04-06T18:06:06.682Z,91822.64
2019-04-06T18:08:46.770Z,91827.28
2019-04-06T18:11:18.433Z,91821.69
2019-04-06T18:13:51.274Z,91852.06
2019-04-06T18:16:23.245Z,91837.55
2019-04-06T18:18:53.710Z,91846.85
2019-04-06T18:21:23.643Z,91854.45
2019-04-06T18:23:55.371Z,91870.22
2019-04-06T18:26:26.279Z,91895.19
2019-04-06T18:28:56.631Z,91888.30
2019-04-06T18:31:31.379Z,91905.02
2019-04-06T18:34:01.532Z,91841.89
2019-04-06T18:36:42.450Z,91789.11
2019-04-06T18:39:14.191Z,91773.75
2019-04-06T18:41:44.459Z,91780.75
2019-04-06T18:44:15.421Z,91807.48
2019-04-06T18:46:45.610Z,91824.52
2019-04-06T18:49:17.472Z,91838.89
2019-04-06T18:51:47.291Z,91826.48
2019-04-06T18:54:17.221Z,91848.33
2019-04-06T18:56:47.313Z,91845.70
2019-04-06T18:59:19.456Z,91828.79
2019-04-06T19:01:49.581Z,91810.58
2019-04-06T19:04:20.845Z,91811.58
2019-04-06T19:06:50.791Z,91807.08
2019-04-06T19:09:23.978Z,91816.22
2019-04-06T19:11:55.465Z,91781.92
2019-04-06T19:14:27.276Z,91780.55
2019-04-06T19:17:00.821Z,91747.07
2019-04-06T19:19:31.869Z,91725.83
2019-04-06T19:22:02.804Z,91724.80
2019-04-06T19:24:32.972Z,91706.30
2019-04-06T19:27:03.391Z,91677.55
2019-04-06T19:29:33.927Z,91628.08
2019-04-06T19:32:04.460Z,90865.38
2019-04-06T19:34:35.177Z,91600.97
2019-04-06T19:37:08.755Z,91586.46
2019-04-06T19:39:37.931Z,91563.55
2019-04-06T19:42:09.266Z,91575.55
2019-04-06T19:44:40.392Z,91603.28
2019-04-06T19:47:10.858Z,91613.29
2019-04-06T19:49:40.791Z,91608.63
2019-04-06T19:52:11.054Z,91585.20
2019-04-06T19:54:41.353Z,90337.80
2019-04-06T19:57:11.271Z,91587.50
2019-04-06T19:59:41.190Z,91603.47
2019-04-06T20:02:11.007Z,91617.32
2019-04-06T20:04:40.965Z,91610.56
2019-04-06T20:07:11.572Z,91608.00
2019-04-06T20:09:41.372Z,91563.34
2019-04-06T20:12:11.522Z,91539.47
2019-04-06T20:14:43.129Z,91509.59
2019-04-06T20:17:13.265Z,91476.78
2019-04-06T20:19:43.885Z,91473.28
2019-04-06T20:22:15.092Z,91474.89
2019-04-06T20:24:45.084Z,91478.51
2019-04-06T20:27:15.371Z,91465.96
2019-04-06T20:29:45.297Z,91455.27
2019-04-06T20:32:15.916Z,91456.95
2019-04-06T20:34:47.113Z,91441.80
2019-04-06T20:37:17.169Z,91416.67
2019-04-06T20:39:46.958Z,91413.47
2019-04-06T20:42:16.890Z,91425.23
2019-04-06T20:44:47.213Z,91442.67
2019-04-06T20:47:17.159Z,91407.23
2019-04-06T20:49:48.554Z,90602.08
2019-04-06T20:52:18.390Z,91412.05
2019-04-06T20:54:49.353Z,91424.70
2019-04-06T20:57:20.210Z,91421.22
2019-04-06T20:59:50.369Z,91406.59
2019-04-06T21:02:20.710Z,91408.28
2019-04-06T21:04:50.664Z,91409.69
2019-04-06T21:07:20.770Z,91384.18
2019-04-06T21:09:50.671Z,91355.33
2019-04-06T21:12:20.953Z,91310.75
2019-04-06T21:14:52.920Z,91294.70
2019-04-06T21:17:22.766Z,91257.58
2019-04-06T21:19:52.611Z,91284.82
2019-04-06T21:22:22.851Z,91278.79
2019-04-06T21:24:53.256Z,91281.31
2019-04-06T21:27:22.991Z,91320.80
2019-04-06T21:29:52.922Z,91346.49
2019-04-06T21:32:26.037Z,91347.50
2019-04-06T21:34:56.122Z,91344.81
2019-04-06T21:37:25.991Z,91316.11
2019-04-06T21:39:55.730Z,91332.03
2019-04-06T21:42:25.475Z,91290.81
2019-04-06T21:44:55.436Z,91266.91
2019-04-06T21:47:25.237Z,91234.16
2019-04-06T21:49:55.505Z,91192.02
2019-04-06T21:52:25.533Z,91118.70
2019-04-06T21:54:55.291Z,91184.56
2019-04-06T21:57:25.030Z,91197.14
2019-04-06T21:59:55.141Z,91187.81
2019-04-06T22:02:26.012Z,91188.52
2019-04-06T22:04:55.650Z,91165.84
2019-04-06T22:07:25.498Z,91173.59
2019-04-06T22:09:55.827Z,91166.37
2019-04-06T22:12:26.084Z,91179.16
2019-04-06T22:14:56.375Z,91133.08
2019-04-06T22:17:26.868Z,91160.70
2019-04-06T22:19:56.848Z,91133.59
2019-04-06T22:22:26.981Z,91118.98
2019-04-06T22:24:58.910Z,91086.92
2019-04-06T22:27:28.970Z,91086.11
2019-04-06T22:29:59.136Z,91058.78
2019-04-06T22:32:29.250Z,91041.45
2019-04-06T22:34:59.316Z,91034.86
2019-04-06T22:37:29.249Z,91014.13
2019-04-06T22:39:59.509Z,91032.80
2019-04-06T22:42:29.295Z,90925.63
2019-04-06T22:45:01.389Z,90927.95
2019-04-06T22:47:31.421Z,90924.59
2019-04-06T22:50:02.815Z,90930.68
2019-04-06T22:52:35.356Z,90968.58
2019-04-06T22:55:08.566Z,90995.02
2019-04-06T22:57:40.956Z,91035.64
2019-04-06T23:00:12.464Z,91022.48
2019-04-06T23:02:57.241Z,91016.31
2019-04-06T23:05:37.917Z,91001.58
2019-04-06T23:08:09.264Z,91008.48
2019-04-06T23:10:39.706Z,90953.62
2019-04-06T23:13:09.517Z,90955.15
2019-04-06T23:15:40.538Z,90958.42
2019-04-06T23:18:10.637Z,90982.38
2019-04-06T23:20:40.575Z,90990.53
2019-04-06T23:23:10.668Z,90969.24
2019-04-06T23:25:40.456Z,90935.17
2019-04-06T23:28:12.833Z,90904.67
2019-04-06T23:30:42.579Z,90887.25
2019-04-06T23:33:12.985Z,90880.26
2019-04-06T23:35:42.837Z,90880.52
2019-04-06T23:38:12.616Z,90868.03
2019-04-06T23:40:42.417Z,90858.56
2019-04-06T23:43:14.954Z,90833.82
2019-04-06T23:45:47.021Z,90806.42
2019-04-06T23:48:16.737Z,90731.25
2019-04-06T23:50:47.478Z,90612.81
2019-04-06T23:53:17.627Z,90557.14
2019-04-06T23:55:48.317Z,90496.95
2019-04-06T23:58:18.803Z,90443.27
